Shady Grove, Illinois
Current Conditions -  °F | °C
As of 12:15 AM on Monday 26 Jan 2015 (Local Time) from KM30 Reporting Station
Overcast Overcast  
Wind Chill: 27°   Ceiling: 1100
Heat Index: 36°   Visibility: 10mi
Dew Point: 35°   Wind: 13mph
Humidity: 98%   Direction: 330°NNW
Pressure: 29.9"   Gusts: 20mph
Location:  37.1362°N, 88.5694°W
Report Text: KM30 260615Z AUTO 33011G17KT 10SM OVC011 02/02 A2990 RMK AO2 T00200017
Loading
Personal Weather Stations






























Interactive Weather Map New forecast layout! Learn more

10-Day Weather Forecast

Advertisements
Track Severe Weather on mobile